Cincinnati, Ohio
Traffic Map
Current Weather Conditions
Cincinnati, Ohio
Clear Haze
Clear
72°
Feels Like: 72°
Wind Chill: 72° Ceiling: Unl
Heat Index: 72° Visibility: 5mi
Dew Point: 72° Wind: 0mph
Humidity: 100% Direction: ° ()
Pressure: 30.1in Gusts: 0mph
Raw Report DataKLUK 270453Z AUTO 00000KT 5SM BR CLR 22/22 A3010 RMK AO2 SLP188 T02220222 403220206
Traffic Incident Summary
Active as of:
Severity:
Category:
InformationThere was an issue retrieving the traffic information for this location. Please try a different location or try again shortly.
Advertisements
Track Severe Weather on mobile